Time;durP1;ratioP1;P1;durP2;ratioP2;P2;SDS_P1;SDS_P2;PMS_P1;PMS_P2;Temp;Humidity;BMP_temperature;BMP_pressure;BME280_temperature;BME280_humidity;BME280_pressure;Samples;Min_cycle;Max_cycle;Signal;HPM_P1;HPM_P2
2023/08/14 07:57:13;;;;;;;;;;;;;;;7.63;100.00;99525.78;4998602;28;20386;-86
2023/08/14 07:59:38;;;;;;;;;;;;;;;7.59;100.00;99525.00;5012633;28;19921;-88
2023/08/14 08:02:05;;;;;;;;;;;;;;;7.63;100.00;99521.34;5012807;28;19948;-92
2023/08/14 08:04:36;;;;;;;;;;;;;;;7.64;100.00;99524.84;5012471;28;19917;-89
2023/08/14 08:07:01;;;;;;;;;;;;;;;7.67;100.00;99519.47;5012891;28;20390;-92
2023/08/14 08:09:27;;;;;;;;;;;;;;;7.65;100.00;99521.31;4994725;28;20012;-95
2023/08/14 08:11:52;;;;;;;;;;;;;;;7.63;100.00;99518.72;5013029;28;19963;-89
2023/08/14 08:14:17;;;;;;;;;;;;;;;7.68;100.00;99521.19;5012555;28;19929;-88
2023/08/14 08:16:44;;;;;;;;;;;;;;;7.67;100.00;99535.28;5012683;28;19924;-88
2023/08/14 08:19:09;;;;;;;;;;;;;;;7.63;100.00;99536.31;5012091;28;20327;-90
2023/08/14 08:21:36;;;;;;;;;;;;;;;7.67;100.00;99522.09;5012378;28;20020;-87
2023/08/14 08:24:01;;;;;;;;;;;;;;;7.77;100.00;99517.34;5010810;28;19925;-89
2023/08/14 08:26:30;;;;;;;;;;;;;;;7.59;100.00;99511.81;5012244;28;19914;-86
2023/08/14 08:29:06;;;;;;;;;;;;;;;7.58;100.00;99511.91;5011457;28;19922;-86
2023/08/14 08:31:41;;;;;;;;;;;;;;;7.58;100.00;99519.81;5011937;28;20335;-92
2023/08/14 08:34:06;;;;;;;;;;;;;;;7.63;100.00;99516.09;5011316;28;20384;-87
2023/08/14 08:36:51;;;;;;;;;;;;;;;7.66;100.00;99512.50;4994390;28;19917;-86
2023/08/14 08:39:17;;;;;;;;;;;;;;;7.67;100.00;99530.00;5010323;28;20415;-86
2023/08/14 08:41:44;;;;;;;;;;;;;;;7.66;100.00;99537.97;5012070;28;19917;-86
2023/08/14 08:44:15;;;;;;;;;;;;;;;7.73;100.00;99532.44;5012195;28;19921;-88
2023/08/14 08:46:50;;;;;;;;;;;;;;;7.64;100.00;99545.94;5011970;28;19921;-87
2023/08/14 08:49:16;;;;;;;;;;;;;;;7.69;100.00;99549.31;5011159;28;20084;-87
2023/08/14 08:51:42;;;;;;;;;;;;;;;7.64;100.00;99548.56;4994388;28;19917;-88
2023/08/14 08:54:07;;;;;;;;;;;;;;;7.72;100.00;99564.13;5010834;28;19984;-88
2023/08/14 08:56:33;;;;;;;;;;;;;;;7.88;100.00;99569.75;5011795;28;20380;-88
2023/08/14 08:58:59;;;;;;;;;;;;;;;7.76;100.00;99577.16;4994393;28;19921;-87
2023/08/14 09:01:25;;;;;;;;;;;;;;;7.78;100.00;99564.78;5010585;28;19921;-87
2023/08/14 09:03:51;;;;;;;;;;;;;;;7.77;100.00;99570.09;5012088;28;19918;-86
2023/08/14 09:06:16;;;;;;;;;;;;;;;7.73;100.00;99576.41;5009798;28;19913;-88
2023/08/14 09:08:41;;;;;;;;;;;;;;;7.84;100.00;99569.00;5011838;28;20001;-89
2023/08/14 09:11:06;;;;;;;;;;;;;;;7.84;100.00;99573.41;5010678;28;19914;-87
2023/08/14 09:13:32;;;;;;;;;;;;;;;7.78;100.00;99564.78;4994330;28;20372;-88
2023/08/14 09:15:59;;;;;;;;;;;;;;;7.73;100.00;99555.31;5011909;28;19968;-83
2023/08/14 09:18:24;;;;;;;;;;;;;;;7.80;100.00;99578.81;5011593;28;20349;-83
2023/08/14 09:20:49;;;;;;;;;;;;;;;7.81;100.00;99575.22;4994282;28;19931;-88
2023/08/14 09:23:15;;;;;;;;;;;;;;;7.81;100.00;99592.84;5011691;28;20277;-86
2023/08/14 09:25:46;;;;;;;;;;;;;;;7.72;100.00;99601.94;5010423;28;19921;-87
2023/08/14 09:28:12;;;;;;;;;;;;;;;7.86;100.00;99609.38;4994112;28;20319;-86
2023/08/14 09:30:38;;;;;;;;;;;;;;;7.79;100.00;99608.72;5012384;28;19943;-88
2023/08/14 09:33:08;;;;;;;;;;;;;;;7.71;100.00;99626.59;4997276;28;19921;-87
2023/08/14 09:35:33;;;;;;;;;;;;;;;7.82;100.00;99635.00;4997356;28;20395;-88
2023/08/14 09:37:59;;;;;;;;;;;;;;;7.85;100.00;99633.16;5015628;28;19918;-89
2023/08/14 09:40:24;;;;;;;;;;;;;;;7.76;100.00;99635.19;5014339;28;20286;-87
2023/08/14 09:42:50;;;;;;;;;;;;;;;7.87;100.00;99660.38;4996822;28;19925;-87
2023/08/14 09:45:17;;;;;;;;;;;;;;;7.79;100.00;99644.78;5015254;28;19932;-87
2023/08/14 09:47:44;;;;;;;;;;;;;;;7.84;100.00;99629.66;4996697;28;19921;-88
2023/08/14 09:50:10;;;;;;;;;;;;;;;7.84;100.00;99636.72;4997498;28;19917;-88
2023/08/14 09:52:38;;;;;;;;;;;;;;;7.88;100.00;99640.97;4996881;28;19925;-87
2023/08/14 09:55:04;;;;;;;;;;;;;;;7.89;100.00;99640.06;5013774;28;20284;-87
2023/08/14 09:57:29;;;;;;;;;;;;;;;7.90;100.00;99641.81;5014978;28;19921;-88
2023/08/14 09:59:55;;;;;;;;;;;;;;;7.90;100.00;99644.44;5014963;28;20020;-87
2023/08/14 10:02:26;;;;;;;;;;;;;;;7.85;100.00;99643.72;5014879;28;19960;-88
2023/08/14 10:04:52;;;;;;;;;;;;;;;7.92;100.00;99646.09;5014173;28;19925;-87
2023/08/14 10:07:18;;;;;;;;;;;;;;;7.95;100.00;99639.84;5014884;28;19917;-92
2023/08/14 10:09:51;;;;;;;;;;;;;;;7.88;100.00;99633.94;5014765;28;19928;-86
2023/08/14 10:12:17;;;;;;;;;;;;;;;7.84;100.00;99628.81;5015071;28;19921;-91
2023/08/14 10:14:45;;;;;;;;;;;;;;;7.88;100.00;99617.22;5014443;28;19920;-90
2023/08/14 10:17:14;;;;;;;;;;;;;;;7.89;100.00;99625.09;5015402;28;20357;-88
2023/08/14 10:19:40;;;;;;;;;;;;;;;7.85;100.00;99633.16;5005951;28;19943;-87
2023/08/14 10:22:07;;;;;;;;;;;;;;;7.86;100.00;99635.75;5015671;28;19925;-88
2023/08/14 10:24:38;;;;;;;;;;;;;;;7.84;100.00;99642.00;5013168;28;20260;-87
2023/08/14 10:27:06;;;;;;;;;;;;;;;7.85;100.00;99644.59;5013575;28;19925;-88
2023/08/14 10:29:32;;;;;;;;;;;;;;;7.81;100.00;99627.13;5014462;28;20060;-87
2023/08/14 10:31:58;;;;;;;;;;;;;;;7.81;100.00;99630.63;5014343;28;20048;-82
2023/08/14 10:34:23;;;;;;;;;;;;;;;7.87;100.00;99618.16;4996760;28;19917;-86
2023/08/14 10:36:49;;;;;;;;;;;;;;;7.88;100.00;99618.09;5014220;28;19921;-85
2023/08/14 10:39:17;;;;;;;;;;;;;;;7.82;100.00;99608.63;5013170;28;20241;-88
2023/08/14 10:41:42;;;;;;;;;;;;;;;7.86;100.00;99613.78;5013491;28;19925;-87
2023/08/14 10:44:09;;;;;;;;;;;;;;;7.87;100.00;99615.53;5014087;28;19917;-86
2023/08/14 10:46:41;;;;;;;;;;;;;;;7.92;100.00;99592.47;5013201;28;19918;-86
2023/08/14 10:49:07;;;;;;;;;;;;;;;7.91;100.00;99599.50;5013435;28;19922;-86
2023/08/14 10:51:35;;;;;;;;;;;;;;;7.81;100.00;99606.88;5013674;28;19932;-85
2023/08/14 10:54:01;;;;;;;;;;;;;;;7.85;100.00;99591.84;5012625;28;19929;-86
2023/08/14 10:56:45;;;;;;;;;;;;;;;7.72;100.00;99554.47;5013744;28;19925;-87
2023/08/14 10:59:20;;;;;;;;;;;;;;;7.82;100.00;99521.56;5004600;28;19975;-85
2023/08/14 11:01:50;;;;;;;;;;;;;;;7.80;100.00;99562.09;5012988;28;20336;-88
2023/08/14 11:04:16;;;;;;;;;;;;;;;7.74;100.00;99571.09;5013007;28;19922;-86
2023/08/14 11:06:56;;;;;;;;;;;;;;;7.76;100.00;99571.91;5013508;28;19917;-87
2023/08/14 11:09:22;;;;;;;;;;;;;;;7.84;100.00;99533.84;5012305;28;19918;-89
2023/08/14 11:11:47;;;;;;;;;;;;;;;7.76;100.00;99527.06;4995950;28;20273;-86
2023/08/14 11:14:12;;;;;;;;;;;;;;;7.86;100.00;99535.50;5013527;28;19952;-88
2023/08/14 11:16:38;;;;;;;;;;;;;;;7.88;100.00;99538.09;5013532;28;19927;-82
2023/08/14 11:19:04;;;;;;;;;;;;;;;7.88;100.00;99531.06;5013486;28;19917;-88
2023/08/14 11:21:34;;;;;;;;;;;;;;;7.88;100.00;99541.59;5013342;28;20354;-88
2023/08/14 11:23:59;;;;;;;;;;;;;;;7.92;100.00;99552.91;5012103;28;19948;-85
2023/08/14 11:26:28;;;;;;;;;;;;;;;7.81;100.00;99548.84;4995771;28;19925;-90
2023/08/14 11:28:53;;;;;;;;;;;;;;;7.94;100.00;99551.91;5013202;28;20031;-85
2023/08/14 11:31:18;;;;;;;;;;;;;;;7.89;100.00;99542.47;4996747;28;19960;-87
2023/08/14 11:33:44;;;;;;;;;;;;;;;7.95;100.00;99536.97;4995532;28;19918;-86
2023/08/14 11:36:09;;;;;;;;;;;;;;;7.94;100.00;99525.53;5013193;28;19927;-89
2023/08/14 11:38:46;;;;;;;;;;;;;;;7.87;100.00;99520.56;5013149;28;19922;-93
2023/08/14 11:41:12;;;;;;;;;;;;;;;8.00;100.00;99512.13;5012147;28;19918;-88
2023/08/14 11:43:37;;;;;;;;;;;;;;;7.94;100.00;99503.56;5013427;28;20391;-84
2023/08/14 11:46:03;;;;;;;;;;;;;;;7.99;100.00;99484.03;5013076;28;19998;-86
2023/08/14 11:48:48;;;;;;;;;;;;;;;7.97;100.00;99485.00;5012944;28;19925;-86
2023/08/14 11:51:14;;;;;;;;;;;;;;;7.99;100.00;99478.75;4995162;28;19926;-89
2023/08/14 11:53:39;;;;;;;;;;;;;;;8.08;100.00;99474.03;5011489;28;19917;-86
2023/08/14 11:56:04;;;;;;;;;;;;;;;8.13;100.00;99465.03;4993719;28;19925;-88
2023/08/14 11:58:31;;;;;;;;;;;;;;;8.19;100.00;99461.31;5012786;28;20005;-86
2023/08/14 12:00:56;;;;;;;;;;;;;;;8.14;100.00;99463.25;5012179;28;19925;-86
2023/08/14 12:03:21;;;;;;;;;;;;;;;8.14;100.00;99465.91;4995102;28;19926;-85
2023/08/14 12:05:47;;;;;;;;;;;;;;;8.08;100.00;99459.06;5012493;28;20000;-88
2023/08/14 12:08:12;;;;;;;;;;;;;;;8.09;100.00;99460.78;5012700;28;19975;-87
2023/08/14 12:10:38;;;;;;;;;;;;;;;8.02;100.00;99446.09;5011325;28;20346;-86
2023/08/14 12:13:04;;;;;;;;;;;;;;;8.03;100.00;99441.69;5012725;28;19968;-86
2023/08/14 12:15:30;;;;;;;;;;;;;;;8.03;100.00;99445.19;5012484;28;19921;-85
2023/08/14 12:17:55;;;;;;;;;;;;;;;8.02;100.00;99450.53;4994864;28;20331;-85
2023/08/14 12:20:22;;;;;;;;;;;;;;;8.04;100.00;99446.03;5012761;28;19918;-90
2023/08/14 12:22:47;;;;;;;;;;;;;;;8.12;100.00;99459.78;5012257;28;20007;-87
2023/08/14 12:25:17;;;;;;;;;;;;;;;8.07;100.00;99461.75;4993630;28;20375;-86
2023/08/14 12:27:42;;;;;;;;;;;;;;;8.09;100.00;99467.81;5011665;28;19924;-89
2023/08/14 12:30:10;;;;;;;;;;;;;;;8.02;100.00;99464.56;5012283;28;19917;-87
2023/08/14 12:32:36;;;;;;;;;;;;;;;8.08;100.00;99456.44;5012664;28;20299;-88
2023/08/14 12:35:01;;;;;;;;;;;;;;;8.03;100.00;99452.25;5012429;28;20445;-84
2023/08/14 12:37:26;;;;;;;;;;;;;;;8.07;100.00;99454.69;5012416;28;19987;-90
2023/08/14 12:39:53;;;;;;;;;;;;;;;8.07;100.00;99459.13;5009845;28;20016;-93
2023/08/14 12:42:18;;;;;;;;;;;;;;;8.14;100.00;99469.41;5012634;28;19963;-88
2023/08/14 12:44:44;;;;;;;;;;;;;;;8.16;100.00;99472.81;5012125;28;20773;-87
2023/08/14 12:47:10;;;;;;;;;;;;;;;8.09;100.00;99466.06;4994580;28;19913;-85
2023/08/14 12:49:36;;;;;;;;;;;;;;;8.12;100.00;99470.34;5012433;28;20036;-87
2023/08/14 12:52:01;;;;;;;;;;;;;;;8.04;100.00;99470.66;4993302;28;20293;-86
2023/08/14 12:54:27;;;;;;;;;;;;;;;8.13;100.00;99469.44;4993150;28;19914;-86
2023/08/14 12:56:52;;;;;;;;;;;;;;;8.14;100.00;99453.56;5011916;28;20027;-89
2023/08/14 12:59:18;;;;;;;;;;;;;;;8.10;100.00;99451.94;5011903;28;19918;-89
2023/08/14 13:01:43;;;;;;;;;;;;;;;8.12;100.00;99458.03;4994313;28;20269;-89
2023/08/14 13:04:08;;;;;;;;;;;;;;;8.16;100.00;99454.34;4994449;28;20319;-89
2023/08/14 13:06:34;;;;;;;;;;;;;;;8.27;100.00;99466.28;5016091;28;19913;-85
2023/08/14 13:08:59;;;;;;;;;;;;;;;8.22;100.00;99466.47;5014543;28;19921;-88
2023/08/14 13:11:24;;;;;;;;;;;;;;;8.23;100.00;99464.69;5018423;28;19917;-92
2023/08/14 13:13:50;;;;;;;;;;;;;;;8.30;100.00;99474.09;4998471;28;19913;-90
2023/08/14 13:16:16;;;;;;;;;;;;;;;8.25;100.00;99468.09;5015034;28;19968;-89
2023/08/14 13:18:44;;;;;;;;;;;;;;;8.16;100.00;99464.91;5015690;28;20336;-90
2023/08/14 13:21:09;;;;;;;;;;;;;;;8.23;100.00;99459.41;5015739;28;19971;-89
2023/08/14 13:23:35;;;;;;;;;;;;;;;8.21;100.00;99456.81;5015610;28;19921;-89
2023/08/14 13:26:00;;;;;;;;;;;;;;;8.24;100.00;99461.13;5014307;28;19921;-90
2023/08/14 13:28:25;;;;;;;;;;;;;;;8.22;100.00;99470.88;5014768;28;20008;-92
2023/08/14 13:30:51;;;;;;;;;;;;;;;8.26;100.00;99469.84;5015588;28;19964;-89
2023/08/14 13:33:16;;;;;;;;;;;;;;;8.27;100.00;99464.50;5015700;28;19918;-91
2023/08/14 13:35:42;;;;;;;;;;;;;;;8.34;100.00;99476.56;5015453;28;20319;-91
2023/08/14 13:38:07;;;;;;;;;;;;;;;8.35;100.00;99465.06;5016000;28;20429;-83
2023/08/14 13:40:33;;;;;;;;;;;;;;;8.37;100.00;99475.56;5014180;28;19917;-87
2023/08/14 13:42:58;;;;;;;;;;;;;;;8.33;100.00;99472.19;5015283;28;19921;-88
2023/08/14 13:45:25;;;;;;;;;;;;;;;8.34;100.00;99479.19;5015317;28;19947;-90
2023/08/14 13:47:50;;;;;;;;;;;;;;;8.36;100.00;99471.22;5015790;28;19960;-92
2023/08/14 13:50:15;;;;;;;;;;;;;;;8.40;100.00;99478.09;4996556;28;20015;-86
2023/08/14 13:52:41;;;;;;;;;;;;;;;8.37;100.00;99480.84;5015301;28;20004;-88
2023/08/14 13:55:09;;;;;;;;;;;;;;;8.34;100.00;99478.31;5013008;28;19921;-86
2023/08/14 13:57:34;;;;;;;;;;;;;;;8.36;100.00;99477.34;4996155;28;19932;-86
2023/08/14 14:00:03;;;;;;;;;;;;;;;8.42;100.00;99480.66;5014795;28;19921;-90
2023/08/14 14:02:28;;;;;;;;;;;;;;;8.37;100.00;99472.94;4996275;28;19918;-87
2023/08/14 14:04:53;;;;;;;;;;;;;;;8.35;100.00;99478.25;4997129;28;19921;-86
2023/08/14 14:07:18;;;;;;;;;;;;;;;8.39;100.00;99471.06;5014887;28;20361;-86
2023/08/14 14:09:44;;;;;;;;;;;;;;;8.41;100.00;99469.25;5013899;28;19940;-87
2023/08/14 14:12:09;;;;;;;;;;;;;;;8.37;100.00;99465.00;4997127;28;19924;-87
2023/08/14 14:14:34;;;;;;;;;;;;;;;8.41;100.00;99463.97;5014650;28;20430;-86
2023/08/14 14:17:00;;;;;;;;;;;;;;;8.44;100.00;99470.94;5013208;28;19924;-85
2023/08/14 14:19:26;;;;;;;;;;;;;;;8.50;100.00;99457.50;4997001;28;19926;-88
2023/08/14 14:21:52;;;;;;;;;;;;;;;8.39;100.00;99459.66;5014507;28;20336;-87
2023/08/14 14:24:18;;;;;;;;;;;;;;;8.37;100.00;99446.53;5013493;28;19922;-87
2023/08/14 14:26:45;;;;;;;;;;;;;;;8.47;100.00;99447.06;4996157;28;19944;-83
2023/08/14 14:29:11;;;;;;;;;;;;;;;8.42;100.00;99439.28;5013619;28;20008;-88
2023/08/14 14:31:36;;;;;;;;;;;;;;;8.48;100.00;99438.22;5014326;28;20361;-91
2023/08/14 14:34:01;;;;;;;;;;;;;;;8.45;100.00;99440.97;4994782;28;19921;-88
2023/08/14 14:36:27;;;;;;;;;;;;;;;8.48;100.00;99447.00;5014582;28;20004;-89
2023/08/14 14:38:52;;;;;;;;;;;;;;;8.57;100.00;99432.56;5013311;28;19948;-89
2023/08/14 14:41:17;;;;;;;;;;;;;;;8.54;100.00;99438.81;5012313;28;19928;-89
2023/08/14 14:43:42;;;;;;;;;;;;;;;8.52;100.00;99440.69;5012974;28;20012;-89
2023/08/14 14:46:08;;;;;;;;;;;;;;;8.56;100.00;99437.91;5012743;28;19930;-87
2023/08/14 14:48:33;;;;;;;;;;;;;;;8.54;100.00;99430.91;5013307;28;19921;-87
2023/08/14 14:50:58;;;;;;;;;;;;;;;8.54;100.00;99438.81;5011276;28;20407;-92
2023/08/14 14:53:23;;;;;;;;;;;;;;;8.51;100.00;99428.38;5013577;28;19928;-86
2023/08/14 14:55:49;;;;;;;;;;;;;;;8.54;100.00;99430.06;5012760;28;19924;-86
2023/08/14 14:58:14;;;;;;;;;;;;;;;8.50;100.00;99431.97;5013909;28;19921;-89
2023/08/14 15:00:39;;;;;;;;;;;;;;;8.54;100.00;99433.53;5013910;28;19924;-87
2023/08/14 15:03:04;;;;;;;;;;;;;;;15.21;100.00;99427.19;4995366;28;19929;-81
2023/08/14 15:05:30;;;;;;;;;;;;;;;14.53;100.00;99424.50;5013823;28;19922;-86
2023/08/14 15:07:56;;;;;;;;;;;;;;;14.60;100.00;99422.31;5013854;28;19928;-85
2023/08/14 15:10:21;;;;;;;;;;;;;;;11.30;100.00;99430.75;4994958;28;19917;-87
2023/08/14 15:12:47;;;;;;;;;;;;;;;10.25;100.00;99433.19;5013185;28;19948;-86
2023/08/14 15:15:12;;;;;;;;;;;;;;;9.78;100.00;99433.59;5013507;28;19925;-82
2023/08/14 15:17:37;;;;;;;;;;;;;;;9.55;100.00;99427.56;5013592;28;19918;-86
2023/08/14 15:20:03;;;;;;;;;;;;;;;9.36;100.00;99426.66;5013247;28;19920;-86
2023/08/14 15:22:28;;;;;;;;;;;;;;;9.26;100.00;99420.91;5013102;28;19929;-85
2023/08/14 15:24:59;;;;;;;;;;;;;;;9.16;100.00;99419.56;5010967;28;19923;-85
2023/08/14 15:27:24;;;;;;;;;;;;;;;9.12;100.00;99415.34;5012644;28;19921;-83
2023/08/14 15:29:50;;;;;;;;;;;;;;;9.05;100.00;99409.47;5012547;28;20372;-87
2023/08/14 15:32:15;;;;;;;;;;;;;;;8.98;100.00;99418.56;5012510;28;19921;-86
2023/08/14 15:34:43;;;;;;;;;;;;;;;9.01;100.00;99405.22;5013310;28;19917;-84
2023/08/14 15:37:20;;;;;;;;;;;;;;;8.89;100.00;99404.81;5013485;28;19928;-85
2023/08/14 15:39:45;;;;;;;;;;;;;;;8.86;100.00;99402.31;5012266;28;19971;-91
2023/08/14 15:42:10;;;;;;;;;;;;;;;10.22;100.00;99406.00;5014494;28;19922;-85
2023/08/14 15:44:36;;;;;;;;;;;;;;;9.42;100.00;99406.06;4995976;28;19933;-83
2023/08/14 15:47:01;;;;;;;;;;;;;;;9.32;100.00;99404.78;4996241;28;19929;-93
2023/08/14 15:49:26;;;;;;;;;;;;;;;9.23;100.00;99398.09;5013852;28;19917;-87
2023/08/14 15:51:51;;;;;;;;;;;;;;;9.18;100.00;99394.78;4996832;28;19917;-88
2023/08/14 15:54:17;;;;;;;;;;;;;;;9.07;100.00;99394.41;5012980;28;19928;-85
2023/08/14 15:56:42;;;;;;;;;;;;;;;9.10;100.00;99399.56;5015771;28;19965;-90
2023/08/14 15:59:08;;;;;;;;;;;;;;;9.04;100.00;99383.97;5006279;28;19976;-89
2023/08/14 16:01:33;;;;;;;;;;;;;;;9.08;100.00;99377.63;4995220;28;20006;-86
2023/08/14 16:03:58;;;;;;;;;;;;;;;9.02;100.00;99378.75;4995435;28;19922;-93
2023/08/14 16:06:24;;;;;;;;;;;;;;;8.93;100.00;99376.47;4997096;28;19921;-86
2023/08/14 16:08:49;;;;;;;;;;;;;;;8.92;100.00;99374.78;5015087;28;20277;-85
2023/08/14 16:11:14;;;;;;;;;;;;;;;9.05;100.00;99381.25;5012793;28;19972;-87
2023/08/14 16:13:39;;;;;;;;;;;;;;;8.82;100.00;99382.25;4999791;28;20343;-86
2023/08/14 16:16:07;;;;;;;;;;;;;;;8.88;100.00;99374.03;5014035;28;20388;-87
2023/08/14 16:18:33;;;;;;;;;;;;;;;8.80;100.00;99376.16;5003866;28;19945;-85
2023/08/14 16:20:58;;;;;;;;;;;;;;;8.96;100.00;99378.16;5018763;28;19925;-86
2023/08/14 16:23:24;;;;;;;;;;;;;;;8.92;100.00;99380.06;5019402;28;19926;-85
2023/08/14 16:25:50;;;;;;;;;;;;;;;9.02;100.00;99375.25;5016066;28;19917;-85
2023/08/14 16:28:27;;;;;;;;;;;;;;;8.88;100.00;99379.31;5025067;28;20439;-87
2023/08/14 16:30:53;;;;;;;;;;;;;;;8.88;100.00;99374.03;5012521;28;19967;-87
2023/08/14 16:33:18;;;;;;;;;;;;;;;8.81;100.00;99379.66;5013406;28;20300;-87
2023/08/14 16:35:44;;;;;;;;;;;;;;;8.89;100.00;99382.84;5013974;28;19921;-89
2023/08/14 16:38:09;;;;;;;;;;;;;;;8.86;100.00;99385.59;5013346;28;19925;-89
2023/08/14 16:41:08;;;;;;;;;;;;;;;8.89;100.00;99380.19;5104120;23;20040;-88
2023/08/14 16:43:33;;;;;;;;;;;;;;;8.95;100.00;99379.06;5028404;28;20391;-85
2023/08/14 16:45:58;;;;;;;;;;;;;;;8.93;100.00;99380.91;5020585;28;19967;-87
2023/08/14 16:48:28;;;;;;;;;;;;;;;8.86;100.00;99383.81;5037546;28;19967;-84
2023/08/14 16:50:53;;;;;;;;;;;;;;;8.84;100.00;99383.03;5033824;28;19921;-85
2023/08/14 16:53:24;;;;;;;;;;;;;;;11.29;100.00;99378.63;5015130;28;20007;-91
2023/08/14 16:55:51;;;;;;;;;;;;;;;9.36;100.00;99373.75;5030989;28;20351;-89
2023/08/14 16:58:16;;;;;;;;;;;;;;;9.08;100.00;99386.41;5031999;28;19921;-89
2023/08/14 17:00:44;;;;;;;;;;;;;;;8.90;100.00;99369.56;5014575;28;20020;-92
2023/08/14 17:03:13;;;;;;;;;;;;;;;8.82;100.00;99373.44;5031397;28;20380;-89
2023/08/14 17:05:41;;;;;;;;;;;;;;;8.84;100.00;99377.75;5013307;28;19921;-91
2023/08/14 17:08:06;;;;;;;;;;;;;;;8.81;100.00;99383.16;5031867;28;20079;-87
2023/08/14 17:10:32;;;;;;;;;;;;;;;8.82;100.00;99384.88;5030786;28;20409;-84
2023/08/14 17:12:58;;;;;;;;;;;;;;;8.78;100.00;99383.28;5032076;28;19975;-91
2023/08/14 17:15:23;;;;;;;;;;;;;;;8.77;100.00;99380.72;5012916;28;19921;-85
2023/08/14 17:17:48;;;;;;;;;;;;;;;8.82;100.00;99382.25;5031597;28;19917;-87
2023/08/14 17:20:13;;;;;;;;;;;;;;;8.87;100.00;99388.19;5030874;28;20386;-86
2023/08/14 17:22:47;;;;;;;;;;;;;;;8.88;100.00;99381.09;5031718;28;19962;-87
2023/08/14 17:25:14;;;;;;;;;;;;;;;8.93;100.00;99381.75;5030327;28;19970;-88
2023/08/14 17:27:41;;;;;;;;;;;;;;;8.90;100.00;99388.06;5030206;28;20346;-92
2023/08/14 17:30:11;;;;;;;;;;;;;;;8.78;100.00;99380.66;5013791;28;20398;-87
2023/08/14 17:32:36;;;;;;;;;;;;;;;8.73;100.00;99379.97;5012695;28;19925;-87
2023/08/14 17:35:06;;;;;;;;;;;;;;;8.78;100.00;99385.94;5031500;28;19924;-86
2023/08/14 17:37:36;;;;;;;;;;;;;;;8.79;100.00;99381.50;5031343;28;19917;-85
2023/08/14 17:40:01;;;;;;;;;;;;;;;8.75;100.00;99380.78;5030213;28;19928;-85
2023/08/14 17:42:29;;;;;;;;;;;;;;;8.80;100.00;99386.72;5031347;28;19921;-87
2023/08/14 17:44:54;;;;;;;;;;;;;;;8.83;100.00;99386.59;5031457;28;19917;-86
2023/08/14 17:47:20;;;;;;;;;;;;;;;8.88;100.00;99384.59;5013390;28;19932;-87
2023/08/14 17:49:46;;;;;;;;;;;;;;;8.81;100.00;99391.09;5010195;28;19943;-84
2023/08/14 17:52:11;;;;;;;;;;;;;;;8.78;100.00;99388.56;5032755;28;20007;-86
2023/08/14 17:54:36;;;;;;;;;;;;;;;8.75;100.00;99396.63;5033732;28;19940;-86
2023/08/14 17:57:01;;;;;;;;;;;;;;;8.72;100.00;99388.81;5017065;28;19917;-84
2023/08/14 17:59:27;;;;;;;;;;;;;;;8.69;100.00;99394.22;5033473;28;19921;-87
2023/08/14 18:01:57;;;;;;;;;;;;;;;8.81;100.00;99395.53;5034115;28;20379;-87
2023/08/14 18:04:22;;;;;;;;;;;;;;;8.71;100.00;99389.72;5016515;28;20357;-88
2023/08/14 18:06:47;;;;;;;;;;;;;;;8.78;100.00;99399.13;5033870;28;20008;-86
2023/08/14 18:09:13;;;;;;;;;;;;;;;8.74;100.00;99397.53;5033396;28;19939;-86
2023/08/14 18:11:38;;;;;;;;;;;;;;;8.68;100.00;99405.69;5035444;28;19964;-85
2023/08/14 18:14:04;;;;;;;;;;;;;;;8.79;100.00;99403.50;5034552;28;20324;-91
2023/08/14 18:16:31;;;;;;;;;;;;;;;8.79;100.00;99400.88;5016661;28;19953;-89
2023/08/14 18:18:57;;;;;;;;;;;;;;;8.73;100.00;99401.13;5035435;28;19917;-89
2023/08/14 18:21:22;;;;;;;;;;;;;;;8.70;100.00;99395.97;5034321;28;19947;-85
2023/08/14 18:23:48;;;;;;;;;;;;;;;8.65;100.00;99411.13;5015706;28;19921;-85
2023/08/14 18:26:14;;;;;;;;;;;;;;;8.71;100.00;99410.88;5033093;28;19924;-84
2023/08/14 18:28:40;;;;;;;;;;;;;;;8.67;100.00;99407.50;5032898;28;19925;-83
2023/08/14 18:31:05;;;;;;;;;;;;;;;8.65;100.00;99409.34;5016289;28;19917;-85
2023/08/14 18:33:30;;;;;;;;;;;;;;;8.75;100.00;99408.97;5034131;28;20415;-82
2023/08/14 18:35:55;;;;;;;;;;;;;;;8.64;100.00;99407.63;5034254;28;19940;-85
2023/08/14 18:38:20;;;;;;;;;;;;;;;8.72;100.00;99412.59;5016314;28;19960;-86
2023/08/14 18:40:46;;;;;;;;;;;;;;;8.65;100.00;99408.50;5032489;28;19921;-91
2023/08/14 18:43:11;;;;;;;;;;;;;;;8.66;100.00;99404.91;5034066;28;19928;-85
2023/08/14 18:45:37;;;;;;;;;;;;;;;8.67;100.00;99414.56;5034162;28;19917;-86
2023/08/14 18:48:02;;;;;;;;;;;;;;;8.68;100.00;99408.34;5034045;28;19921;-85
2023/08/14 18:50:28;;;;;;;;;;;;;;;8.69;100.00;99415.34;5033903;28;19928;-88
2023/08/14 18:52:53;;;;;;;;;;;;;;;8.65;100.00;99419.91;5016210;28;19918;-85
2023/08/14 18:55:21;;;;;;;;;;;;;;;8.65;100.00;99419.06;5032679;28;19917;-87
2023/08/14 18:57:46;;;;;;;;;;;;;;;8.72;100.00;99417.88;5032537;28;19917;-88
2023/08/14 19:00:12;;;;;;;;;;;;;;;8.72;100.00;99415.22;5031909;28;19979;-85
2023/08/14 19:02:37;;;;;;;;;;;;;;;8.69;100.00;99416.22;5032620;28;19978;-84
2023/08/14 19:05:03;;;;;;;;;;;;;;;8.72;100.00;99412.59;5033706;28;19921;-86
2023/08/14 19:07:28;;;;;;;;;;;;;;;8.66;100.00;99415.47;5033623;28;19925;-90
2023/08/14 19:09:53;;;;;;;;;;;;;;;8.56;100.00;99414.16;5014855;28;20348;-86
2023/08/14 19:12:19;;;;;;;;;;;;;;;8.57;100.00;99418.50;5033492;28;19918;-88
2023/08/14 19:14:44;;;;;;;;;;;;;;;8.65;100.00;99413.78;5033638;28;19942;-86
2023/08/14 19:17:09;;;;;;;;;;;;;;;8.57;100.00;99416.72;5015454;28;20307;-87
2023/08/14 19:19:35;;;;;;;;;;;;;;;8.63;100.00;99416.50;5033285;28;19917;-84
2023/08/14 19:22:00;;;;;;;;;;;;;;;10.79;100.00;99432.44;5033320;28;20379;-85
2023/08/14 19:24:25;;;;;;;;;;;;;;;9.49;100.00;99438.41;5031982;28;20009;-85
2023/08/14 19:26:51;;;;;;;;;;;;;;;9.25;100.00;99441.19;5033279;28;19917;-81
2023/08/14 19:29:16;;;;;;;;;;;;;;;9.14;100.00;99447.84;5033246;28;19925;-84
2023/08/14 19:31:41;;;;;;;;;;;;;;;9.00;100.00;99448.44;5033049;28;20371;-83
2023/08/14 19:34:06;;;;;;;;;;;;;;;8.90;100.00;99446.19;5033170;28;19921;-84
2023/08/14 19:36:32;;;;;;;;;;;;;;;8.99;100.00;99449.38;5015141;28;20459;-84
2023/08/14 19:38:58;;;;;;;;;;;;;;;8.88;100.00;99449.81;5033064;28;20008;-83
2023/08/14 19:41:24;;;;;;;;;;;;;;;8.79;100.00;99448.41;5031617;28;19927;-84
2023/08/14 19:43:49;;;;;;;;;;;;;;;8.85;100.00;99453.41;5015041;28;19928;-83
2023/08/14 19:46:14;;;;;;;;;;;;;;;8.83;100.00;99454.44;5031036;28;19921;-84
2023/08/14 19:48:40;;;;;;;;;;;;;;;8.80;100.00;99465.97;5032658;28;19917;-83
2023/08/14 19:51:06;;;;;;;;;;;;;;;8.78;100.00;99465.19;5032843;28;19921;-86
2023/08/14 19:53:31;;;;;;;;;;;;;;;8.78;100.00;99461.69;5032563;28;19924;-86
2023/08/14 19:55:57;;;;;;;;;;;;;;;8.80;100.00;99465.97;5031469;28;20410;-84
2023/08/14 19:58:22;;;;;;;;;;;;;;;8.77;100.00;99463.44;5032628;28;19959;-86
2023/08/14 20:00:47;;;;;;;;;;;;;;;8.82;100.00;99464.16;5032547;28;19929;-84
2023/08/14 20:03:16;;;;;;;;;;;;;;;8.74;100.00;99476.78;5032202;28;19917;-87
2023/08/14 20:05:47;;;;;;;;;;;;;;;8.66;100.00;99474.47;5032464;28;19939;-82
2023/08/14 20:08:14;;;;;;;;;;;;;;;8.69;100.00;99476.97;5032446;28;19975;-86
2023/08/14 20:10:39;;;;;;;;;;;;;;;8.76;100.00;99479.34;5031192;28;19929;-82
2023/08/14 20:13:07;;;;;;;;;;;;;;;8.75;100.00;99472.38;5032479;28;19958;-84
2023/08/14 20:15:32;;;;;;;;;;;;;;;8.75;100.00;99467.09;5031732;28;19917;-85
2023/08/14 20:17:58;;;;;;;;;;;;;;;8.85;100.00;99474.56;5032408;28;20395;-85
2023/08/14 20:20:23;;;;;;;;;;;;;;;8.74;100.00;99476.78;5032058;28;19913;-90
2023/08/14 20:22:48;;;;;;;;;;;;;;;8.74;100.00;99471.50;5032201;28;20206;-83
2023/08/14 20:25:14;;;;;;;;;;;;;;;8.72;100.00;99468.91;5030322;28;19917;-86
2023/08/14 20:27:39;;;;;;;;;;;;;;;8.68;100.00;99469.09;5012390;28;19968;-85
2023/08/14 20:30:04;;;;;;;;;;;;;;;8.83;100.00;99462.34;5032058;28;19917;-86
2023/08/14 20:32:30;;;;;;;;;;;;;;;8.71;100.00;99472.50;5032029;28;19928;-88
2023/08/14 20:34:55;;;;;;;;;;;;;;;8.70;100.00;99480.47;5031922;28;19917;-85
2023/08/14 20:37:20;;;;;;;;;;;;;;;8.73;100.00;99475.94;5032091;28;19925;-86